www.protime.co.za Contact Us

OTTOSDAL - 2019 - MTB

Overall Finish List

January 26, 2019


Protime Sport - Powered By TimingSA www.protime.co.za

MTB /20KM /OPEN

Place Name Bib No Age Gender Chip Time Gun Time
1 HANRU VAN HEERDEN 2154 15 M 47:30.7 47:30.7
2 BRENDON ERASMUS 2120 14 M 47:30.8 47:30.8
3 MARCO GONCALVES 2043 14 M 51:25.8 51:25.8
4 SEWIE MOSTERT 2138 15 M 52:19.0 52:19.0
5 NATHAN NORVAL 2044 14 M 52:37.0 52:37.0
6 JANDRÉ WIESE 2115 15 M 53:20.5 53:20.5
7 PIETER ERNST 2190 35 M 56:52.6 56:52.6
8 WYATT BOTES 2027 14 F 57:51.0 57:51.0
9 JUAN NEL 2134 14 M 57:54.1 57:54.1
10 XANDER LE ROUX 2119 12 M 57:55.0 57:55.0
11 KEVIN PEREIRA 2194 15 M 58:19.0 58:19.0
12 SAMANTHA BLAAUW 2156 23 F 58:44.3 58:44.3
13 HILGARDT MULLER 2016 35 M 58:48.0 58:48.0
14 STEFAN WILLEMSE 2024 35 M 59:27.4 59:27.4
15 JASON WARD 2191 53 M 59:41.5 59:41.5
16 ANRU HECTHTER 2036 16 M 1:02:06.0 1:02:06.0
17 NARDUS TALJARD 2103 37 M 1:02:10.0 1:02:10.0
18 TARIEN NOETH 2017 16 F 1:03:08.6 1:03:08.6
19 GJ VENTER 2125 15 M 1:04:00.2 1:04:00.2
20 RIANA VAN ROOYEN 2152 41 F 1:04:05.5 1:04:05.5
21 TILLA VAN NIEKERK 2141 47 F 1:04:15.8 1:04:15.8
22 QUINTON VAN NIEKERK 2140 36 M 1:04:16.0 1:04:16.0
23 JOHAN VAN DER COLFF 2050 55 M 1:04:26.9 1:04:26.9
24 CORNÉ ROOS 2179 39 M 1:05:11.0 1:05:11.0
25 NIGEL CARPENTER 2021 53 M 1:07:16.8 1:07:16.8
26 FANIE DE VILLIERS 2122 49 M 1:07:26.6 1:07:26.6
27 MZWAKHE KOBUE 2072 37 M 1:08:25.3 1:08:25.3
28 CHRISTINA ROUX 2051 37 F 1:08:37.7 1:08:37.7
29 RONEL FOSTER 2148 45 F 1:09:21.8 1:09:21.8
30 PETRUS VAN DER LINDE 2130 9 M 1:09:43.6 1:09:43.6
31 JACBUS VAN DER LINDE 2129 13 M 1:09:44.5 1:09:44.5
32 MARTIN NEL 2144 44 M 1:09:44.9 1:09:44.9
33 MARLI NEL 2145 14 F 1:09:45.2 1:09:45.2
34 BOSHOFF LIDA 2091 36 F 1:09:50.4 1:09:50.4
35 CHANELLE COETZER 2046 16 F 1:09:55.5 1:09:55.5
36 COBUS MULLER 2061 20 M 1:10:05.8 1:10:05.8
37 MEGAN GROBBELAAR 2155 15 F 1:10:23.9 1:10:23.9
38 MARISKA FOUCHE 2065 37 F 1:10:33.9 1:10:33.9
39 JOHATHAN SCHEEPERS 2106 12 M 1:10:36.5 1:10:36.5
40 WILLIE MOSTERT 2062 60 M 1:10:37.4 1:10:37.4
41 WIMPIE OLIVIER 2146 40 M 1:10:40.2 1:10:40.2
42 JOHAN SCHEEPERS 2105 58 M 1:10:42.0 1:10:42.0
43 EKHARDT HUMAN 2186 17 M 1:10:44.0 1:10:44.0
44 JOHAN GLOVER 2002 47 M 1:10:45.7 1:10:45.7
45 DEWALD BLAAUW 2117 17 M 1:11:13.9 1:11:13.9
46 NICK PARSONS 2131 61 M 1:11:17.9 1:11:17.9
47 CISKA HANEKOM 2069 38 F 1:12:15.5 1:12:15.5
48 AREND HANEKOM 2070 38 M 1:12:15.8 1:12:15.8
49 PIETER LOURENS 2183 37 M 1:12:44.2 1:12:44.2
50 BERNARD LOURENS 2182 28 M 1:12:45.2 1:12:45.2
51 BLAKS ELS 2184 31 M 1:12:46.0 1:12:46.0
52 JONATHAN ODENDAAL 2137 64 M 1:12:50.0 1:12:50.0
53 HANS TEMPERMAN 2107 25 M 1:12:58.9 1:12:58.9
54 RW VAN NIEKERK 2108 32 M 1:12:58.9 1:12:58.9
55 BRAAM BEZUIDENHOUT 2139 15 M 1:13:03.6 1:13:03.6
56 JC SHANAHAN 2126 15 M 1:13:28.4 1:13:28.4
57 HENRI NESER 2058 34 M 1:13:36.6 1:13:36.6
58 HEIN NESER 2047 72 M 1:13:36.8 1:13:36.8
59 ANNEMARIE VAN STRAATEN 2143 40 F 1:13:56.0 1:13:56.0
60 RIAAN ENGELBRECHT 2048 60 M 1:14:16.9 1:14:16.9
61 BONITA VAN DEVENTER 2174 38 F 1:14:21.9 1:14:21.9
62 NELLIE SCHEEPERS 2153 40 F 1:14:24.0 1:14:24.0
63 RENTIA ENGELBRECHT 2030 43 F 1:16:10.6 1:16:10.6
64 IZAK ROUX 2052 33 M 1:16:18.4 1:16:18.4
65 DOMINIC DALHOUZLE 2166 18 M 1:16:24.8 1:16:24.8
66 JALENE HARVEY 2175 15 F 1:16:33.0 1:16:33.0
67 MAGRIET HECTHTER 2035 43 F 1:16:49.3 1:16:49.3
68 LIZANNE VAN RENSBURG 2060 38 F 1:17:53.1 1:17:53.1
69 JANNIE BARNARD 2169 26 M 1:18:14.8 1:18:14.8
70 MARYKE STROEBEL 2023 28 F 1:18:58.4 1:18:58.4
71 DONOVAN NEL 2063 42 M 1:18:59.4 1:18:59.4
72 JACQUES WILLEMSE 2075 47 M 1:19:01.6 1:19:01.6
73 MARLE JACOBS 2028 27 F 1:19:52.2 1:19:52.2
74 HEIN HECTHTER 2037 14 M 1:20:25.6 1:20:25.6
75 LUKAS MAREE 2093 17 M 1:20:43.3 1:20:43.3
76 ALANA CARSTENS 2185 27 F 1:20:47.6 1:20:47.6
77 PIETER CLAASE 2147 25 M 1:20:51.3 1:20:51.3
78 NONET PASSMORE 2100 34 F 1:20:52.9 1:20:52.9
79 PIETER-LOUIS THERON 2101 40 M 1:20:53.9 1:20:53.9
80 JANNIE BRENKMAN 2136 49 M 1:21:35.7 1:21:35.7
81 TUMELO MOTLHANKE 2195 47 M 1:21:37.5 1:21:37.5
82 JJ BREDENKAMP 2022 31 M 1:22:36.1 1:22:36.1
83 RINETTE ROETS 2055 26 F 1:23:10.6 1:23:10.6
84 COBUS NIEUWOUDT 2173 28 M 1:23:12.0 1:23:12.0
85 SERATI TSHENYE 2098 84 M 1:23:20.1 1:23:20.1
86 NELIA ENGELBRECHT 2049 57 F 1:23:49.8 1:23:49.8
87 MARKU VAN DER MERWE 2193 15 M 1:23:51.8 1:23:51.8
88 LOEN DE NYSSCHEN 2176 51 M 1:25:10.2 1:25:10.2
89 JOHAN MEYER 2188 52 M 1:25:12.7 1:25:12.7
90 ANINA MULLER 2018 47 F 1:26:01.1 1:26:01.1
91 LIRIE MARAIS 2097 25 F 1:26:29.4 1:26:29.4
92 WILLEM FOURIE 2157 28 M 1:27:13.5 1:27:13.5
93 ANZEL FOURIE 2158 28 F 1:27:13.7 1:27:13.7
94 LU-ANNE ALBERTS 2110 12 F 1:27:14.8 1:27:14.8
95 SONJA ALBERTS 2112 39 F 1:27:15.7 1:27:15.7
96 ENGELA PIENAAR 2053 41 F 1:29:16.6 1:29:16.6
97 DE BRUTO BADENHORST 2181 13 M 1:29:24.2 1:29:24.2
98 MARIKE BOTES 2162 24 F 1:29:30.8 1:29:30.8
99 JENNIE NEL 2123 24 F 1:29:31.3 1:29:31.3
100 GJ PRETORIUS 2170 13 M 1:29:34.7 1:29:34.7
 
Place Name Bib No Age Gender Chip Time Gun Time
101 PIETER NEL 2124 32 M 1:29:38.3 1:29:38.3
102 JOHANN VON MOLTKE 2082 9 M 1:29:56.8 1:29:56.8
103 CHERIE MAREE 2026 16 F 1:30:16.8 1:30:16.8
104 DARIUS VAN DER MERWE 2192 16 M 1:30:17.2 1:30:17.2
105 LEON FOUCHE 2074 44 M 1:31:53.0 1:31:53.0
106 EDRICH CLAASSEN 2109 10 M 1:32:47.0 1:32:47.0
107 ELANA BARON 2151 34 F 1:33:14.5 1:33:14.5
108 SANET MEIRING 2149 55 F 1:33:15.9 1:33:15.9
109 HANS VAN EEDEN 2111 64 M 1:33:54.1 1:33:54.1
110 MARNA KOTZE 2057 29 F 1:34:21.8 1:34:21.8
111 ARNO KOTZE 2056 31 M 1:34:22.0 1:34:22.0
112 EMILE BLAAUW 2116 13 M 1:34:35.8 1:34:35.8
113 RIAAN DU PLESSIS 2081 29 M 1:34:38.0 1:34:38.0
114 JOHAN BLAAUW 2118 47 M 1:34:39.4 1:34:39.4
115 ZEL-MARIE NAN DER WETHUIZEN 2040 27 F 1:34:58.1 1:34:58.1
116 MAGDA PARSONS 2132 62 F 1:35:48.8 1:35:48.8
117 SCHALK JNR ENGELBRECHT 2038 12 M 1:35:51.0 1:35:51.0
118 TSEPO LUBISI 2054 30 M 1:37:25.4 1:37:25.4
119 Unknown Partic. 2034 2034 0 M 1:38:01.9 1:38:01.9
120 SCHALK ENGELBRECHT 2033 46 M 1:38:07.6 1:38:07.6
121 LOMUS DGENAAR 2127 28 M 1:38:35.0 1:38:35.0
122 ELMARIE BRENKMAN 2135 44 F 1:38:40.2 1:38:40.2
123 THINUS ROSSOUW 2096 38 M 1:39:28.6 1:39:28.6
124 WIEKUS VENTER 2121 43 M 1:39:28.7 1:39:28.7
125 LUANE GREEVE 2078 11 F 1:42:04.5 1:42:04.5
126 ANITA GREEVE 2079 40 F 1:42:05.5 1:42:05.5
127 ANESKE OLIVIER 2159 15 F 1:43:35.0 1:43:35.0
128 CLEMENT JANSE VAN RENSBURG 2095 59 M 1:43:57.7 1:43:57.7
129 BRANDA GARTH-DAVIS 2104 62 F 1:45:07.4 1:45:07.4
130 JOANIE LOUW 2163 32 F 1:45:13.4 1:45:13.4
131 BERTIE ROUX 2171 35 M 1:45:50.8 1:45:50.8
132 DANIE JOOSTE 2172 29 M 1:45:51.2 1:45:51.2
133 HETTIE DE VILLIERS 2177 60 F 1:47:58.7 1:47:58.7
134 GERBIE HAASBROEK 2010 43 M 1:50:00.0 1:50:00.0
135 NICOLAS GREEVE 2076 8 M 1:51:28.3 1:51:28.3
136 LUKAS GREEVE 2077 40 M 1:51:28.3 1:51:28.3
137 HERINA PRETORIUS 2007 36 F 1:56:30.3 1:56:30.3
138 JOHANDIE NEL 2006 17 F 2:03:51.9 2:03:51.9
139 JANE VAN AARDE 2009 26 F 2:03:52.1 2:03:52.1
140 REINHARDT SCHOEMAN 2068 31 M 2:04:59.3 2:04:59.3
141 DEONE SCHOEMAN 2067 30 F 2:05:21.9 2:05:21.9
142 ELISKA DALHARZIE 2167 16 F 2:47:02.4 2:47:02.4
143 SASKIA BRANDT 2168 16 F 2:47:04.8 2:47:04.8
144 ANSU MULDER 2092 44 F 2:51:45.8 2:51:45.8
145 ANNELIEN DALHOUZLE 2165 41 F 2:54:51.0 2:54:51.0
146 JACQUES DALHOUZLE 2164 48 M 2:54:51.1 2:54:51.1
147 PHILIP OLIVIER 2161 45 M 3:06:06.3 3:06:06.3
148 THERESIA OLIVIER 2160 41 F 3:06:07.0 3:06:07.0